createdAt,value
2016-08-25T00:00:51.808Z,0
2016-08-25T00:01:51.785Z,0
2016-08-25T00:02:51.810Z,0
2016-08-25T00:03:37.607Z,0
2016-08-25T00:04:36.933Z,0
2016-08-25T00:05:36.970Z,0
2016-08-25T00:06:36.991Z,0
2016-08-25T00:07:37.008Z,0
2016-08-25T00:08:37.041Z,0
2016-08-25T00:09:37.069Z,0
2016-08-25T00:10:37.149Z,0
2016-08-25T00:11:37.114Z,0
2016-08-25T00:13:37.168Z,0
2016-08-25T00:14:52.128Z,0
2016-08-25T00:15:52.148Z,0
2016-08-25T00:16:52.172Z,0
2016-08-25T00:17:37.278Z,0
2016-08-25T00:18:37.305Z,0
2016-08-25T00:19:37.320Z,0
2016-08-25T00:20:52.280Z,0
2016-08-25T00:21:37.375Z,0
2016-08-25T00:22:52.334Z,0
2016-08-25T00:23:37.440Z,0
2016-08-25T00:24:37.464Z,0
2016-08-25T00:25:37.487Z,0
2016-08-25T00:27:37.594Z,0
2016-08-25T00:28:37.559Z,0
2016-08-25T00:29:52.571Z,0
2016-08-25T00:30:52.532Z,0
2016-08-25T00:32:07.493Z,0
2016-08-25T00:32:52.601Z,0
2016-08-25T00:33:52.617Z,0
2016-08-25T00:34:52.652Z,0
2016-08-25T00:35:37.752Z,0
2016-08-25T00:36:37.769Z,0
2016-08-25T00:37:37.796Z,0
2016-08-25T00:38:37.826Z,0
2016-08-25T00:39:37.856Z,0
2016-08-25T00:40:37.884Z,0
2016-08-25T00:41:37.901Z,0
2016-08-25T00:42:37.931Z,0
2016-08-25T00:43:37.959Z,0
2016-08-25T00:44:37.975Z,0
2016-08-25T00:45:52.942Z,0
2016-08-25T00:46:38.029Z,0
2016-08-25T00:47:38.054Z,0
2016-08-25T00:49:38.117Z,0
2016-08-25T00:50:53.060Z,0
2016-08-25T00:51:38.167Z,0
2016-08-25T00:52:38.187Z,0
2016-08-25T00:53:38.211Z,0
2016-08-25T00:54:38.243Z,0
2016-08-25T00:55:38.264Z,0
2016-08-25T00:56:38.300Z,0
2016-08-25T00:57:38.322Z,0
2016-08-25T00:58:53.283Z,0
2016-08-25T00:59:38.386Z,0
2016-08-25T01:00:38.392Z,0
2016-08-25T01:01:38.430Z,0
2016-08-25T01:02:39.165Z,0
2016-08-25T01:03:39.173Z,0
2016-08-25T01:04:38.496Z,0
2016-08-25T01:05:38.530Z,0
2016-08-25T01:06:53.476Z,0
2016-08-25T01:08:38.600Z,0
2016-08-25T01:09:53.558Z,0
2016-08-25T01:10:38.658Z,0
2016-08-25T01:11:53.703Z,0
2016-08-25T01:12:38.709Z,0
2016-08-25T01:13:38.728Z,0
2016-08-25T01:14:38.752Z,0
2016-08-25T01:15:38.794Z,0
2016-08-25T01:16:38.827Z,0
2016-08-25T01:17:54.463Z,0
2016-08-25T01:18:53.787Z,0
2016-08-25T01:19:38.900Z,0
2016-08-25T01:20:38.920Z,0
2016-08-25T01:21:38.942Z,0
2016-08-25T01:22:53.902Z,0
2016-08-25T01:23:39.001Z,0
2016-08-25T01:24:39.015Z,0
2016-08-25T01:25:39.034Z,0
2016-08-25T01:26:53.994Z,0
2016-08-25T01:27:39.093Z,0
2016-08-25T01:28:39.121Z,0
2016-08-25T01:29:39.151Z,0
2016-08-25T01:30:39.222Z,0
2016-08-25T01:31:39.245Z,0
2016-08-25T01:32:39.223Z,0
2016-08-25T01:33:39.244Z,0
2016-08-25T01:36:39.336Z,0
2016-08-25T01:37:54.273Z,0
2016-08-25T01:39:54.330Z,0
2016-08-25T01:41:39.463Z,0
2016-08-25T01:42:39.490Z,0
2016-08-25T01:43:39.520Z,0
2016-08-25T01:44:39.552Z,0
2016-08-25T01:45:39.568Z,0
2016-08-25T01:47:39.611Z,0
2016-08-25T01:48:39.653Z,0
2016-08-25T01:49:39.663Z,0
2016-08-25T01:50:54.620Z,0
2016-08-25T01:51:54.635Z,0
2016-08-25T01:52:39.731Z,0
2016-08-25T01:53:54.688Z,0
2016-08-25T01:54:39.793Z,0
2016-08-25T01:55:54.744Z,0
2016-08-25T01:56:39.842Z,0
2016-08-25T01:57:54.787Z,0
2016-08-25T01:58:39.897Z,0
2016-08-25T01:59:39.916Z,0
2016-08-25T02:00:54.870Z,0
2016-08-25T02:01:39.971Z,0
2016-08-25T02:02:40.012Z,0
2016-08-25T02:03:40.015Z,0
2016-08-25T02:05:40.080Z,0
2016-08-25T02:06:40.106Z,0
2016-08-25T02:07:40.129Z,0
2016-08-25T02:08:40.152Z,0
2016-08-25T02:10:40.204Z,0
2016-08-25T02:11:40.380Z,0
2016-08-25T02:12:55.184Z,0
2016-08-25T02:13:55.209Z,0
2016-08-25T02:14:40.304Z,0
2016-08-25T02:15:40.342Z,0
2016-08-25T02:16:40.353Z,0
2016-08-25T02:17:55.305Z,0
2016-08-25T02:18:40.415Z,0
2016-08-25T02:19:40.430Z,0
2016-08-25T02:20:41.158Z,0
2016-08-25T02:22:10.338Z,0
2016-08-25T02:24:40.557Z,0
2016-08-25T02:25:55.507Z,0
2016-08-25T02:26:40.617Z,0
2016-08-25T02:27:55.561Z,0
2016-08-25T02:28:40.665Z,0
2016-08-25T02:29:40.688Z,0
2016-08-25T02:30:40.714Z,0
2016-08-25T02:31:40.740Z,0
2016-08-25T02:32:40.772Z,0
2016-08-25T02:33:40.802Z,0
2016-08-25T02:34:55.751Z,0
2016-08-25T02:35:55.766Z,0
2016-08-25T02:36:40.883Z,0
2016-08-25T02:37:40.899Z,0
2016-08-25T02:38:40.920Z,0
2016-08-25T02:39:41.001Z,0
2016-08-25T02:40:40.987Z,0
2016-08-25T02:41:55.927Z,0
2016-08-25T02:42:41.024Z,0
2016-08-25T02:43:41.059Z,0
2016-08-25T02:44:41.078Z,0
2016-08-25T02:45:41.095Z,0
2016-08-25T02:46:41.122Z,0
2016-08-25T02:47:56.081Z,0
2016-08-25T02:48:41.175Z,0
2016-08-25T02:49:41.203Z,0
2016-08-25T02:50:41.247Z,0
2016-08-25T02:51:41.248Z,0
2016-08-25T02:52:56.197Z,0
2016-08-25T02:53:41.298Z,0
2016-08-25T02:54:41.329Z,0
2016-08-25T02:55:41.361Z,0
2016-08-25T02:56:41.377Z,0
2016-08-25T02:57:56.334Z,0
2016-08-25T02:58:56.358Z,0
2016-08-25T02:59:41.450Z,0
2016-08-25T03:00:41.479Z,0
2016-08-25T03:01:42.212Z,0
2016-08-25T03:02:41.537Z,0
2016-08-25T03:03:41.551Z,0
2016-08-25T03:04:41.586Z,0
2016-08-25T03:05:41.617Z,0
2016-08-25T03:06:56.554Z,0
2016-08-25T03:07:42.383Z,0
2016-08-25T03:08:41.684Z,0
2016-08-25T03:09:56.632Z,0
2016-08-25T03:10:56.664Z,0
2016-08-25T03:11:41.815Z,0
2016-08-25T03:12:56.714Z,0
2016-08-25T03:14:41.839Z,0
2016-08-25T03:15:41.866Z,0
2016-08-25T03:16:56.865Z,0
2016-08-25T03:17:41.911Z,0
2016-08-25T03:18:41.944Z,0
2016-08-25T03:19:41.966Z,0
2016-08-25T03:20:41.991Z,0
2016-08-25T03:21:42.020Z,0
2016-08-25T03:23:42.062Z,0
2016-08-25T03:24:42.088Z,0
2016-08-25T03:25:42.121Z,0
2016-08-25T03:26:42.137Z,0
2016-08-25T03:27:42.167Z,0
2016-08-25T03:28:57.113Z,0
2016-08-25T03:29:42.219Z,0
2016-08-25T03:30:42.247Z,0
2016-08-25T03:31:57.195Z,0
2016-08-25T03:32:42.292Z,0
2016-08-25T03:33:42.316Z,0
2016-08-25T03:34:42.339Z,0
2016-08-25T03:35:42.386Z,0
2016-08-25T03:36:42.448Z,0
2016-08-25T03:37:42.428Z,0
2016-08-25T03:38:42.443Z,0
2016-08-25T03:39:57.401Z,0
2016-08-25T03:40:42.502Z,0
2016-08-25T03:41:42.527Z,0
2016-08-25T03:42:42.550Z,0
2016-08-25T03:43:42.576Z,0
2016-08-25T03:44:57.530Z,0
2016-08-25T03:45:42.625Z,0
2016-08-25T03:46:42.649Z,0
2016-08-25T03:47:42.680Z,0
2016-08-25T03:48:42.708Z,0
2016-08-25T03:49:42.728Z,0
2016-08-25T03:50:42.764Z,0
2016-08-25T03:51:42.770Z,0
2016-08-25T03:52:42.798Z,0
2016-08-25T03:53:42.828Z,0
2016-08-25T03:54:42.849Z,0
2016-08-25T03:55:42.870Z,0
2016-08-25T03:56:57.826Z,0
2016-08-25T03:57:42.933Z,5
2016-08-25T03:58:42.947Z,5
2016-08-25T03:59:57.897Z,5
2016-08-25T04:01:43.036Z,5
2016-08-25T04:02:43.055Z,5
2016-08-25T04:03:43.080Z,5
2016-08-25T04:04:58.029Z,5
2016-08-25T04:05:43.136Z,5
2016-08-25T04:06:43.149Z,10
2016-08-25T04:07:43.172Z,10
2016-08-25T04:08:43.213Z,10
2016-08-25T04:09:43.227Z,10
2016-08-25T04:10:43.252Z,10
2016-08-25T04:11:43.284Z,10
2016-08-25T04:12:43.304Z,15
2016-08-25T04:13:58.251Z,15
2016-08-25T04:14:58.274Z,15
2016-08-25T04:15:43.379Z,15
2016-08-25T04:16:58.322Z,15
2016-08-25T04:17:43.439Z,20
2016-08-25T04:18:43.461Z,20
2016-08-25T04:19:43.478Z,20
2016-08-25T04:20:43.504Z,20
2016-08-25T04:21:43.528Z,20
2016-08-25T04:22:43.554Z,25
2016-08-25T04:23:43.634Z,25
2016-08-25T04:24:43.608Z,25
2016-08-25T04:25:43.642Z,25
2016-08-25T04:26:44.354Z,30
2016-08-25T04:28:43.710Z,30
2016-08-25T04:29:43.731Z,30
2016-08-25T04:30:43.752Z,30
2016-08-25T04:31:43.779Z,35
2016-08-25T04:32:58.723Z,35
2016-08-25T04:33:43.837Z,35
2016-08-25T04:34:43.873Z,35
2016-08-25T04:35:43.884Z,40
2016-08-25T04:36:43.907Z,40
2016-08-25T04:37:43.930Z,40
2016-08-25T04:38:43.959Z,40
2016-08-25T04:39:43.978Z,45
2016-08-25T04:40:44.011Z,45
2016-08-25T04:41:59.003Z,50
2016-08-25T04:42:44.062Z,50
2016-08-25T04:43:44.091Z,55
2016-08-25T04:44:44.111Z,65
2016-08-25T04:45:59.058Z,75
2016-08-25T04:46:59.085Z,120
2016-08-25T04:47:59.110Z,330
2016-08-25T04:48:44.215Z,515
2016-08-25T04:49:44.241Z,595
2016-08-25T04:50:44.265Z,615
2016-08-25T04:51:59.215Z,655
2016-08-25T04:52:44.312Z,675
2016-08-25T04:53:44.391Z,675
2016-08-25T04:54:44.364Z,700
2016-08-25T04:55:44.389Z,725
2016-08-25T04:56:44.430Z,730
2016-08-25T04:57:44.443Z,760
2016-08-25T04:58:44.467Z,790
2016-08-25T04:59:44.511Z,755
2016-08-25T05:00:44.539Z,795
2016-08-25T05:01:44.559Z,835
2016-08-25T05:02:44.592Z,850
2016-08-25T05:03:44.618Z,850
2016-08-25T05:04:44.663Z,880
2016-08-25T05:05:44.679Z,900
2016-08-25T05:06:59.629Z,910
2016-08-25T05:07:44.735Z,930
2016-08-25T05:08:59.688Z,935
2016-08-25T05:09:59.718Z,960
2016-08-25T05:10:44.820Z,980
2016-08-25T05:11:59.775Z,935
2016-08-25T05:12:44.879Z,680
2016-08-25T05:13:44.913Z,390
2016-08-25T05:14:59.878Z,320
2016-08-25T05:15:59.914Z,250
2016-08-25T05:16:45.015Z,315
2016-08-25T05:17:59.966Z,845
2016-08-25T05:18:45.076Z,890
2016-08-25T05:20:00.033Z,390
2016-08-25T05:20:45.145Z,295
2016-08-25T05:21:45.160Z,270
2016-08-25T05:23:00.121Z,155
2016-08-25T05:24:00.153Z,250
2016-08-25T05:24:45.309Z,215
2016-08-25T05:26:00.209Z,145
2016-08-25T05:26:45.316Z,170
2016-08-25T05:27:45.353Z,160
2016-08-25T05:28:45.374Z,210
2016-08-25T05:29:45.416Z,395
2016-08-25T05:31:00.359Z,875
2016-08-25T05:31:45.459Z,1005
2016-08-25T05:32:45.490Z,700
2016-08-25T05:33:45.525Z,360
2016-08-25T05:35:00.476Z,500
2016-08-25T05:36:00.508Z,545
2016-08-25T05:36:45.615Z,680
2016-08-25T05:38:00.567Z,1025
2016-08-25T05:39:00.597Z,945
2016-08-25T05:39:45.702Z,1070
2016-08-25T05:40:45.724Z,1155
2016-08-25T05:41:45.763Z,1195
2016-08-25T05:42:45.792Z,1200
2016-08-25T05:44:00.800Z,1190
2016-08-25T05:45:00.778Z,1200
2016-08-25T05:46:00.817Z,1150
2016-08-25T05:46:45.941Z,1130
2016-08-25T05:48:00.933Z,1200
2016-08-25T05:49:00.908Z,1200
2016-08-25T05:49:46.020Z,1205
2016-08-25T05:50:46.052Z,1235
2016-08-25T05:52:01.006Z,1195
2016-08-25T05:53:01.036Z,1230
2016-08-25T05:53:46.153Z,1290
2016-08-25T05:54:46.256Z,1260
2016-08-25T05:56:46.256Z,1285
2016-08-25T05:57:46.291Z,1280
2016-08-25T05:59:01.243Z,1255
2016-08-25T05:59:46.352Z,1270
2016-08-25T06:00:46.386Z,1270
2016-08-25T06:01:46.428Z,1250
2016-08-25T06:02:46.454Z,1220
2016-08-25T06:03:46.492Z,1240
2016-08-25T06:04:46.527Z,1295
2016-08-25T06:06:01.484Z,1255
2016-08-25T06:06:46.585Z,1300
2016-08-25T06:08:01.553Z,1315
2016-08-25T06:08:46.669Z,1345
2016-08-25T06:09:46.703Z,1270
2016-08-25T06:10:46.738Z,1320
2016-08-25T06:11:46.768Z,1295
2016-08-25T06:12:46.805Z,1240
2016-08-25T06:13:46.838Z,1245
2016-08-25T06:15:01.800Z,1200
2016-08-25T06:15:46.915Z,1190
2016-08-25T06:16:46.945Z,1230
2016-08-25T06:17:46.986Z,1190
2016-08-25T06:18:47.017Z,1165
2016-08-25T06:20:01.977Z,1130
2016-08-25T06:21:02.012Z,1070
2016-08-25T06:21:47.120Z,1065
2016-08-25T06:23:02.094Z,1040
2016-08-25T06:23:47.199Z,1040
2016-08-25T06:24:47.233Z,990
2016-08-25T06:25:47.269Z,945
2016-08-25T06:26:47.301Z,915
2016-08-25T06:27:47.351Z,855
2016-08-25T06:28:47.397Z,800
2016-08-25T06:29:47.422Z,810
2016-08-25T06:30:47.530Z,765
2016-08-25T06:31:47.517Z,700
2016-08-25T06:32:47.512Z,670
2016-08-25T06:34:47.626Z,620
2016-08-25T06:35:47.684Z,600
2016-08-25T06:36:47.694Z,595
2016-08-25T06:37:47.703Z,615
2016-08-25T06:39:47.804Z,545
2016-08-25T06:40:47.831Z,575
2016-08-25T06:43:47.952Z,620
2016-08-25T06:44:47.973Z,630
2016-08-25T06:45:48.002Z,640
2016-08-25T06:46:48.087Z,710
2016-08-25T06:47:48.112Z,920
2016-08-25T06:48:48.172Z,1615
2016-08-25T06:49:48.161Z,2135
2016-08-25T06:50:48.177Z,2165
2016-08-25T06:51:48.306Z,1985
2016-08-25T06:52:48.279Z,1935
2016-08-25T06:53:48.335Z,1950
2016-08-25T06:55:03.276Z,1655
2016-08-25T06:55:48.361Z,1585
2016-08-25T06:56:48.424Z,1460
2016-08-25T06:57:48.456Z,1450
2016-08-25T06:59:48.517Z,1610
2016-08-25T07:00:48.582Z,1615
2016-08-25T07:01:48.587Z,1575
2016-08-25T07:02:48.627Z,1550
2016-08-25T07:03:48.656Z,1520
2016-08-25T07:04:48.694Z,1545
2016-08-25T07:05:48.726Z,1570
2016-08-25T07:07:03.704Z,1450
2016-08-25T07:07:48.794Z,1380
2016-08-25T07:09:03.762Z,1430
2016-08-25T07:09:48.909Z,1375
2016-08-25T07:11:03.842Z,1350
2016-08-25T07:12:03.900Z,1425
2016-08-25T07:12:49.000Z,1410
2016-08-25T07:14:03.949Z,1390
2016-08-25T07:14:49.119Z,1340
2016-08-25T07:15:49.120Z,1200
2016-08-25T07:16:49.142Z,1260
2016-08-25T07:17:49.181Z,1380
2016-08-25T07:18:49.220Z,1385
2016-08-25T07:19:49.256Z,1350
2016-08-25T07:21:04.217Z,1355
2016-08-25T07:21:49.353Z,1365
2016-08-25T07:22:49.378Z,1375
2016-08-25T07:24:04.340Z,1345
2016-08-25T07:25:04.370Z,1325
2016-08-25T07:25:49.486Z,1320
2016-08-25T07:27:04.460Z,1330
2016-08-25T07:28:05.184Z,1380
2016-08-25T07:28:49.585Z,1425
2016-08-25T07:30:49.705Z,1240
2016-08-25T07:31:49.704Z,1235
2016-08-25T07:32:49.754Z,1275
2016-08-25T07:35:49.841Z,1295
2016-08-25T07:36:49.880Z,1235
2016-08-25T07:38:04.848Z,1210
2016-08-25T07:38:49.961Z,1215
2016-08-25T07:39:50.001Z,1185
2016-08-25T07:40:50.045Z,1235
2016-08-25T07:41:50.087Z,1205
2016-08-25T07:43:05.065Z,1155
2016-08-25T07:43:50.150Z,1190
2016-08-25T07:44:50.177Z,1215
2016-08-25T07:45:50.220Z,1205
2016-08-25T07:47:05.211Z,1165
2016-08-25T07:47:50.292Z,1165
2016-08-25T07:48:50.337Z,1180
2016-08-25T07:49:50.377Z,1170
2016-08-25T07:51:50.448Z,1155
2016-08-25T07:52:50.531Z,1160
2016-08-25T07:53:50.558Z,1155
2016-08-25T07:55:05.491Z,1135
2016-08-25T07:55:50.640Z,1140
2016-08-25T07:56:50.639Z,1200
2016-08-25T07:58:05.616Z,1155
2016-08-25T07:59:05.628Z,1105
2016-08-25T07:59:50.745Z,1125
2016-08-25T08:00:50.761Z,1115
2016-08-25T08:01:50.874Z,1085
2016-08-25T08:03:05.813Z,1075
2016-08-25T08:03:50.875Z,1045
2016-08-25T08:04:50.947Z,1060
2016-08-25T08:05:50.972Z,1075
2016-08-25T08:07:06.637Z,1015
2016-08-25T08:07:51.046Z,1005
2016-08-25T08:08:51.073Z,1015
2016-08-25T08:09:51.117Z,945
2016-08-25T08:10:51.156Z,925
2016-08-25T08:11:51.179Z,950
2016-08-25T08:13:06.137Z,925
2016-08-25T08:14:06.171Z,920
2016-08-25T08:14:51.363Z,920
2016-08-25T08:15:51.315Z,905
2016-08-25T08:17:06.281Z,880
2016-08-25T08:17:51.387Z,870
2016-08-25T08:18:51.433Z,865
2016-08-25T08:19:51.497Z,860
2016-08-25T08:20:51.514Z,835
2016-08-25T08:21:51.542Z,820
2016-08-25T08:22:51.572Z,820
2016-08-25T08:24:06.551Z,810
2016-08-25T08:24:51.638Z,810
2016-08-25T08:25:51.695Z,795
2016-08-25T08:26:51.738Z,775
2016-08-25T08:27:51.772Z,765
2016-08-25T08:28:51.796Z,735
2016-08-25T08:30:06.751Z,715
2016-08-25T08:31:06.799Z,720
2016-08-25T08:32:06.820Z,700
2016-08-25T08:33:06.880Z,700
2016-08-25T08:33:51.970Z,685
2016-08-25T08:35:06.936Z,675
2016-08-25T08:36:52.102Z,660
2016-08-25T08:37:52.107Z,650
2016-08-25T08:38:52.225Z,640
2016-08-25T08:39:52.188Z,630
2016-08-25T08:40:52.230Z,620
2016-08-25T08:41:52.280Z,605
2016-08-25T08:42:52.303Z,590
2016-08-25T08:43:52.330Z,585
2016-08-25T08:45:07.289Z,565
2016-08-25T08:46:07.336Z,560
2016-08-25T08:47:07.362Z,555
2016-08-25T08:47:52.492Z,545
2016-08-25T08:48:52.522Z,540
2016-08-25T08:49:52.557Z,530
2016-08-25T08:51:52.612Z,515
2016-08-25T08:53:07.667Z,505
2016-08-25T08:53:52.694Z,505
2016-08-25T08:54:52.723Z,500
2016-08-25T08:55:52.759Z,490
2016-08-25T08:56:52.820Z,485
2016-08-25T08:57:52.826Z,480
2016-08-25T08:58:52.873Z,475
2016-08-25T08:59:52.918Z,470
2016-08-25T09:02:07.897Z,460
2016-08-25T09:03:07.939Z,465
2016-08-25T09:03:53.757Z,465
2016-08-25T09:04:53.079Z,470
2016-08-25T09:05:53.159Z,465
2016-08-25T09:06:53.162Z,465
2016-08-25T09:07:53.207Z,465
2016-08-25T09:09:08.148Z,460
2016-08-25T09:09:53.272Z,460
2016-08-25T09:10:53.285Z,460
2016-08-25T09:11:53.342Z,460
2016-08-25T09:13:53.427Z,460
2016-08-25T09:14:53.432Z,465
2016-08-25T09:15:53.473Z,460
2016-08-25T09:18:08.463Z,465
2016-08-25T09:18:53.623Z,455
2016-08-25T09:19:53.610Z,445
2016-08-25T09:22:08.622Z,435
2016-08-25T09:23:08.656Z,430
2016-08-25T09:23:53.773Z,420
2016-08-25T09:24:53.812Z,405
2016-08-25T09:26:53.879Z,370
2016-08-25T09:28:08.832Z,340
2016-08-25T09:28:53.953Z,325
2016-08-25T09:29:53.977Z,305
2016-08-25T09:30:53.996Z,290
2016-08-25T09:32:08.968Z,285
2016-08-25T09:33:09.032Z,285
2016-08-25T09:34:09.030Z,285
2016-08-25T09:34:54.170Z,285
2016-08-25T09:36:54.219Z,285
2016-08-25T09:37:54.247Z,285
2016-08-25T09:38:54.307Z,285
2016-08-25T09:39:54.340Z,285
2016-08-25T09:40:54.366Z,285
2016-08-25T09:41:54.384Z,285
2016-08-25T09:42:54.424Z,285
2016-08-25T09:44:09.393Z,285
2016-08-25T09:44:54.502Z,285
2016-08-25T09:46:54.574Z,280
2016-08-25T09:47:54.603Z,280
2016-08-25T09:48:54.635Z,280
2016-08-25T09:51:10.347Z,280
2016-08-25T09:51:54.739Z,280
2016-08-25T09:52:55.001Z,280
2016-08-25T09:53:54.800Z,280
2016-08-25T09:54:54.852Z,280
2016-08-25T09:55:54.900Z,275
2016-08-25T09:56:54.929Z,275
2016-08-25T09:57:54.963Z,275
2016-08-25T09:58:54.982Z,280
2016-08-25T09:59:55.027Z,275
2016-08-25T10:00:55.056Z,275
2016-08-25T10:01:55.794Z,275
2016-08-25T10:02:55.130Z,275
2016-08-25T10:03:55.163Z,275
2016-08-25T10:05:10.129Z,275
2016-08-25T10:05:55.223Z,270
2016-08-25T10:06:55.263Z,275
2016-08-25T10:07:55.979Z,270
2016-08-25T10:08:55.351Z,270
2016-08-25T10:09:55.376Z,265
2016-08-25T10:10:55.411Z,265
2016-08-25T10:11:55.434Z,265
2016-08-25T10:14:55.542Z,260
2016-08-25T10:15:55.650Z,260
2016-08-25T10:16:55.621Z,260
2016-08-25T10:17:55.676Z,260
2016-08-25T10:18:57.423Z,255
2016-08-25T10:19:55.713Z,255
2016-08-25T10:21:10.678Z,255
2016-08-25T10:22:10.701Z,255
2016-08-25T10:22:55.813Z,250
2016-08-25T10:23:55.873Z,250
2016-08-25T10:24:55.891Z,250
2016-08-25T10:26:10.850Z,250
2016-08-25T10:26:55.970Z,250
2016-08-25T10:27:55.986Z,250
2016-08-25T10:28:56.033Z,250
2016-08-25T10:29:56.753Z,245
2016-08-25T10:30:56.089Z,245
2016-08-25T10:32:11.063Z,245
2016-08-25T10:32:56.185Z,245
2016-08-25T10:33:56.200Z,240
2016-08-25T10:35:56.271Z,240
2016-08-25T10:37:11.942Z,240
2016-08-25T10:37:56.333Z,235
2016-08-25T10:38:56.382Z,235
2016-08-25T10:39:56.397Z,230
2016-08-25T10:40:57.150Z,230
2016-08-25T10:41:56.466Z,225
2016-08-25T10:42:56.535Z,225
2016-08-25T10:43:56.523Z,225
2016-08-25T10:44:56.605Z,225
2016-08-25T10:45:56.608Z,220
2016-08-25T10:46:56.666Z,220
2016-08-25T10:47:56.676Z,215
2016-08-25T10:48:56.732Z,215
2016-08-25T10:50:11.664Z,215
2016-08-25T10:50:56.800Z,215
2016-08-25T10:51:56.809Z,215
2016-08-25T10:53:11.804Z,215
2016-08-25T10:54:11.836Z,210
2016-08-25T10:54:56.923Z,210
2016-08-25T10:55:56.938Z,210
2016-08-25T10:56:56.983Z,205
2016-08-25T10:58:11.949Z,205
2016-08-25T10:58:57.024Z,200
2016-08-25T11:00:12.017Z,195
2016-08-25T11:00:57.103Z,195
2016-08-25T11:01:57.139Z,190
2016-08-25T11:02:57.170Z,190
2016-08-25T11:03:57.233Z,185
2016-08-25T11:04:57.229Z,180
2016-08-25T11:05:57.282Z,180
2016-08-25T11:06:57.310Z,180
2016-08-25T11:08:12.262Z,175
2016-08-25T11:08:57.387Z,170
2016-08-25T11:09:57.402Z,170
2016-08-25T11:10:57.436Z,170
2016-08-25T11:11:57.475Z,170
2016-08-25T11:12:57.526Z,170
2016-08-25T11:13:57.545Z,165
2016-08-25T11:14:57.585Z,165
2016-08-25T11:16:12.525Z,160
2016-08-25T11:16:57.634Z,160
2016-08-25T11:17:57.655Z,155
2016-08-25T11:19:12.631Z,155
2016-08-25T11:19:57.718Z,155
2016-08-25T11:20:57.776Z,150
2016-08-25T11:21:57.786Z,150
2016-08-25T11:22:57.921Z,150
2016-08-25T11:23:57.866Z,150
2016-08-25T11:24:57.909Z,145
2016-08-25T11:25:57.915Z,145
2016-08-25T11:27:57.992Z,145
2016-08-25T11:28:58.047Z,145
2016-08-25T11:29:58.060Z,145
2016-08-25T11:31:58.121Z,140
2016-08-25T11:32:58.148Z,140
2016-08-25T11:33:58.202Z,140
2016-08-25T11:34:58.224Z,140
2016-08-25T11:36:13.229Z,140
2016-08-25T11:36:58.273Z,140
2016-08-25T11:37:58.333Z,140
2016-08-25T11:38:58.364Z,140
2016-08-25T11:40:28.230Z,140
2016-08-25T11:40:58.439Z,140
2016-08-25T11:41:58.455Z,140
2016-08-25T11:43:58.512Z,140
2016-08-25T11:45:58.570Z,140
2016-08-25T11:46:58.624Z,140
2016-08-25T11:47:58.636Z,140
2016-08-25T11:48:58.690Z,140
2016-08-25T11:49:58.701Z,140
2016-08-25T11:50:58.764Z,140
2016-08-25T11:51:58.762Z,140
2016-08-25T11:52:59.493Z,140
2016-08-25T11:53:58.863Z,140
2016-08-25T11:54:58.987Z,140
2016-08-25T11:56:14.518Z,140
2016-08-25T11:56:58.932Z,140
2016-08-25T11:57:58.956Z,140
2016-08-25T11:58:58.996Z,140
2016-08-25T12:01:59.078Z,140
2016-08-25T12:03:14.064Z,145
2016-08-25T12:03:59.148Z,145
2016-08-25T12:05:14.109Z,145
2016-08-25T12:05:59.219Z,145
2016-08-25T12:06:59.271Z,145
2016-08-25T12:07:59.308Z,145
2016-08-25T12:09:14.230Z,145
2016-08-25T12:10:14.276Z,145
2016-08-25T12:10:59.371Z,145
2016-08-25T12:12:14.340Z,145
2016-08-25T12:13:14.387Z,145
2016-08-25T12:13:59.481Z,145
2016-08-25T12:14:59.499Z,145
2016-08-25T12:16:14.482Z,145
2016-08-25T12:16:59.566Z,145
2016-08-25T12:17:59.612Z,145
2016-08-25T12:18:59.638Z,150
2016-08-25T12:19:59.662Z,150
2016-08-25T12:20:59.703Z,150
2016-08-25T12:21:59.722Z,150
2016-08-25T12:23:59.806Z,150
2016-08-25T12:24:59.819Z,150
2016-08-25T12:25:59.875Z,150
2016-08-25T12:26:59.897Z,150
2016-08-25T12:29:59.982Z,150
2016-08-25T12:31:00.025Z,150
2016-08-25T12:32:00.048Z,150
2016-08-25T12:33:00.091Z,150
2016-08-25T12:34:00.181Z,150
2016-08-25T12:35:00.167Z,150
2016-08-25T12:36:00.163Z,150
2016-08-25T12:37:00.220Z,150
2016-08-25T12:38:15.161Z,150
2016-08-25T12:39:00.284Z,150
2016-08-25T12:40:15.231Z,155
2016-08-25T12:41:00.331Z,155
2016-08-25T12:42:15.292Z,155
2016-08-25T12:43:15.335Z,155
2016-08-25T12:44:00.438Z,155
2016-08-25T12:45:00.494Z,155
2016-08-25T12:46:00.501Z,155
2016-08-25T12:47:15.446Z,155
2016-08-25T12:48:00.579Z,155
2016-08-25T12:49:00.591Z,155
2016-08-25T12:50:15.575Z,155
2016-08-25T12:51:00.701Z,155
2016-08-25T12:52:15.647Z,155
2016-08-25T12:53:00.741Z,155
2016-08-25T12:54:00.767Z,155
2016-08-25T12:55:00.838Z,155
2016-08-25T12:56:00.829Z,155
2016-08-25T12:57:00.866Z,155
2016-08-25T12:58:00.896Z,155
2016-08-25T12:59:15.843Z,155
2016-08-25T13:00:15.868Z,155
2016-08-25T13:03:01.034Z,155
2016-08-25T13:05:01.095Z,155
2016-08-25T13:06:16.085Z,155
2016-08-25T13:07:01.164Z,155
2016-08-25T13:08:01.192Z,155
2016-08-25T13:09:01.253Z,155
2016-08-25T13:10:01.260Z,155
2016-08-25T13:12:01.359Z,155
2016-08-25T13:13:01.349Z,155
2016-08-25T13:14:01.409Z,155
2016-08-25T13:15:31.267Z,155
2016-08-25T13:16:01.470Z,155
2016-08-25T13:17:01.498Z,155
2016-08-25T13:18:01.764Z,155
2016-08-25T13:19:16.479Z,155
2016-08-25T13:20:01.575Z,155
2016-08-25T13:21:01.618Z,155
2016-08-25T13:22:01.641Z,155
2016-08-25T13:24:02.441Z,155
2016-08-25T13:25:01.728Z,155
2016-08-25T13:26:01.775Z,155
2016-08-25T13:27:16.722Z,155
2016-08-25T13:28:01.867Z,155
2016-08-25T13:29:01.875Z,155
2016-08-25T13:30:01.907Z,155
2016-08-25T13:31:16.864Z,155
2016-08-25T13:34:16.975Z,155
2016-08-25T13:35:02.066Z,155
2016-08-25T13:36:02.104Z,155
2016-08-25T13:37:02.123Z,155
2016-08-25T13:38:02.859Z,155
2016-08-25T13:39:02.179Z,155
2016-08-25T13:40:02.240Z,155
2016-08-25T13:41:02.265Z,155
2016-08-25T13:42:02.277Z,155
2016-08-25T13:43:02.323Z,155
2016-08-25T13:44:02.402Z,155
2016-08-25T13:45:17.307Z,155
2016-08-25T13:46:02.412Z,155
2016-08-25T13:48:02.472Z,155
2016-08-25T13:49:02.504Z,155
2016-08-25T13:50:17.463Z,155
2016-08-25T13:51:02.556Z,155
2016-08-25T13:52:17.539Z,155
2016-08-25T13:53:02.633Z,155
2016-08-25T13:54:02.688Z,155
2016-08-25T13:55:03.409Z,155
2016-08-25T13:56:02.742Z,155
2016-08-25T13:57:02.754Z,155
2016-08-25T13:58:02.795Z,155
2016-08-25T13:59:02.831Z,155
2016-08-25T14:01:02.910Z,155
2016-08-25T14:02:17.853Z,155
2016-08-25T14:03:17.880Z,155
2016-08-25T14:05:03.037Z,155
2016-08-25T14:06:03.039Z,155
2016-08-25T14:07:03.100Z,155
2016-08-25T14:08:03.105Z,155
2016-08-25T14:09:03.241Z,155
2016-08-25T14:10:03.160Z,155
2016-08-25T14:11:03.212Z,155
2016-08-25T14:12:03.241Z,155
2016-08-25T14:13:03.304Z,155
2016-08-25T14:14:03.311Z,155
2016-08-25T14:15:03.334Z,155
2016-08-25T14:16:03.352Z,155
2016-08-25T14:17:03.403Z,155
2016-08-25T14:18:18.344Z,155
2016-08-25T14:19:18.386Z,155
2016-08-25T14:20:18.412Z,155
2016-08-25T14:21:03.546Z,155
2016-08-25T14:22:03.567Z,150
2016-08-25T14:23:03.598Z,150
2016-08-25T14:24:18.562Z,150
2016-08-25T14:25:03.646Z,150
2016-08-25T14:26:03.689Z,155
2016-08-25T14:27:18.631Z,150
2016-08-25T14:28:03.771Z,150
2016-08-25T14:29:03.781Z,150
2016-08-25T14:30:03.813Z,150
2016-08-25T14:31:03.852Z,150
2016-08-25T14:32:03.867Z,150
2016-08-25T14:33:03.917Z,150
2016-08-25T14:34:18.856Z,150
2016-08-25T14:35:18.881Z,150
2016-08-25T14:36:04.016Z,150
2016-08-25T14:37:04.018Z,150
2016-08-25T14:38:04.056Z,150
2016-08-25T14:39:04.084Z,150
2016-08-25T14:40:04.120Z,150
2016-08-25T14:41:04.156Z,150
2016-08-25T14:42:04.183Z,150
2016-08-25T14:43:04.226Z,150
2016-08-25T14:44:19.244Z,150
2016-08-25T14:45:04.301Z,150
2016-08-25T14:46:04.320Z,150
2016-08-25T14:47:04.349Z,150
2016-08-25T14:48:04.376Z,150
2016-08-25T14:49:04.419Z,150
2016-08-25T14:50:19.361Z,145
2016-08-25T14:51:04.471Z,150
2016-08-25T14:52:19.427Z,145
2016-08-25T14:53:04.544Z,150
2016-08-25T14:54:19.505Z,145
2016-08-25T14:55:04.607Z,145
2016-08-25T14:56:04.619Z,145
2016-08-25T14:57:05.370Z,145
2016-08-25T14:58:04.695Z,145
2016-08-25T14:59:04.727Z,145